createdAt,value
2022-09-06T00:01:17.335Z,22.40
2022-09-06T00:09:22.749Z,22.50
2022-09-06T00:17:32.097Z,22.60
2022-09-06T00:25:38.050Z,22.60
2022-09-06T00:33:46.968Z,22.70
2022-09-06T00:41:52.399Z,22.50
2022-09-06T00:50:02.486Z,22.30
2022-09-06T00:58:07.883Z,22.20
2022-09-06T01:06:26.552Z,22.00
2022-09-06T01:14:47.502Z,22.00
2022-09-06T01:23:23.478Z,22.00
2022-09-06T01:31:36.529Z,21.90
2022-09-06T01:39:43.633Z,22.00
2022-09-06T01:48:00.110Z,21.60
2022-09-06T01:56:13.879Z,21.60
2022-09-06T02:04:27.999Z,21.60
2022-09-06T02:12:35.725Z,21.40
2022-09-06T02:20:48.385Z,21.30
2022-09-06T02:28:53.799Z,21.10
2022-09-06T02:37:02.985Z,21.10
2022-09-06T02:45:09.291Z,21.10
2022-09-06T02:53:18.783Z,21.20
2022-09-06T03:01:24.287Z,21.20
2022-09-06T03:09:32.371Z,21.20
2022-09-06T03:17:37.737Z,20.90
2022-09-06T03:25:45.854Z,20.90
2022-09-06T03:33:51.238Z,20.90
2022-09-06T03:41:59.253Z,20.80
2022-09-06T03:50:04.687Z,21.10
2022-09-06T03:58:12.731Z,21.20
2022-09-06T04:06:18.153Z,21.00
2022-09-06T04:14:26.096Z,21.10
2022-09-06T04:22:31.601Z,21.30
2022-09-06T04:30:39.639Z,21.30
2022-09-06T04:38:46.511Z,21.40
2022-09-06T04:47:09.334Z,21.40
2022-09-06T04:55:15.044Z,21.40
2022-09-06T05:03:23.315Z,21.80
2022-09-06T05:11:28.757Z,22.00
2022-09-06T05:19:36.812Z,22.20
2022-09-06T05:27:42.274Z,22.40
2022-09-06T05:35:50.373Z,22.70
2022-09-06T05:43:55.828Z,22.40
2022-09-06T05:52:03.846Z,22.50
2022-09-06T06:00:12.206Z,22.20
2022-09-06T06:08:20.327Z,22.30
2022-09-06T06:16:26.525Z,22.80
2022-09-06T06:24:34.635Z,23.50
2022-09-06T06:32:40.484Z,23.70
2022-09-06T06:40:54.155Z,24.50
2022-09-06T06:49:03.921Z,24.40
2022-09-06T06:57:12.823Z,25.00
2022-09-06T07:13:46.771Z,25.30
2022-09-06T07:21:52.191Z,26.00
2022-09-06T07:30:00.182Z,26.40
2022-09-06T07:38:05.654Z,26.30
2022-09-06T07:46:15.895Z,26.80
2022-09-06T07:54:36.637Z,26.80
2022-09-06T08:02:44.709Z,27.20
2022-09-06T08:10:53.546Z,27.90
2022-09-06T08:19:03.313Z,27.40
2022-09-06T08:27:09.582Z,27.70
2022-09-06T08:35:17.710Z,28.20
2022-09-06T08:43:24.817Z,28.30
2022-09-06T08:52:11.804Z,28.30
2022-09-06T09:00:23.270Z,28.70
2022-09-06T09:08:32.342Z,28.80
2022-09-06T09:16:43.366Z,28.90
2022-09-06T09:24:51.926Z,29.90
2022-09-06T09:32:59.932Z,30.20
2022-09-06T09:41:08.607Z,30.10
2022-09-06T09:49:30.218Z,30.70
2022-09-06T09:57:47.554Z,31.60
2022-09-06T10:06:03.321Z,31.50
2022-09-06T10:14:18.765Z,32.30
2022-09-06T10:22:31.150Z,33.20
2022-09-06T10:30:43.262Z,34.30
2022-09-06T10:39:00.366Z,39.10
2022-09-06T10:47:14.546Z,43.20
2022-09-06T10:55:23.080Z,42.30
2022-09-06T11:12:09.085Z,44.70
2022-09-06T11:20:22.059Z,48.70
2022-09-06T11:28:38.022Z,50.00
2022-09-06T11:36:49.752Z,52.60
2022-09-06T11:45:21.653Z,50.30
2022-09-06T11:53:29.497Z,51.80
2022-09-06T12:01:42.929Z,59.10
2022-09-06T12:09:48.500Z,61.60
2022-09-06T12:17:56.851Z,62.00
2022-09-06T12:26:02.471Z,59.90
2022-09-06T12:34:16.958Z,61.10
2022-09-06T12:42:23.194Z,58.80
2022-09-06T12:50:31.773Z,53.90
2022-09-06T12:58:38.943Z,46.40
2022-09-06T13:06:48.862Z,41.50
2022-09-06T13:14:56.395Z,37.40
2022-09-06T13:23:13.191Z,34.70
2022-09-06T13:31:26.334Z,32.20
2022-09-06T13:39:39.731Z,31.80
2022-09-06T13:47:45.050Z,32.00
2022-09-06T13:55:53.009Z,32.40
2022-09-06T14:03:58.786Z,32.70
2022-09-06T14:12:07.369Z,32.30
2022-09-06T14:20:15.738Z,31.50
2022-09-06T14:28:23.890Z,30.60
2022-09-06T14:36:31.688Z,30.40
2022-09-06T14:44:39.775Z,29.70
2022-09-06T14:52:45.380Z,28.90
2022-09-06T15:00:53.526Z,29.00
2022-09-06T15:08:59.699Z,29.10
2022-09-06T15:17:09.109Z,29.30
2022-09-06T15:25:14.606Z,29.20
2022-09-06T15:33:22.745Z,28.90
2022-09-06T15:41:29.616Z,28.80
2022-09-06T15:49:37.929Z,28.50
2022-09-06T15:57:43.422Z,28.10
2022-09-06T16:14:18.544Z,27.70
2022-09-06T16:22:26.711Z,27.80
2022-09-06T16:30:32.258Z,27.60
2022-09-06T16:38:41.621Z,27.40
2022-09-06T16:46:48.024Z,27.00
2022-09-06T16:54:56.106Z,26.80
2022-09-06T17:03:01.779Z,26.70
2022-09-06T17:11:12.122Z,26.90
2022-09-06T17:19:17.872Z,26.70
2022-09-06T17:27:26.044Z,26.40
2022-09-06T17:35:31.568Z,26.30
2022-09-06T17:43:41.671Z,26.20
2022-09-06T17:51:49.445Z,26.10
2022-09-06T17:59:57.518Z,26.00
2022-09-06T18:08:03.002Z,25.90
2022-09-06T18:16:11.182Z,25.70
2022-09-06T18:24:16.880Z,25.40
2022-09-06T18:32:25.017Z,25.30
2022-09-06T18:40:31.053Z,25.00
2022-09-06T18:48:40.358Z,25.00
2022-09-06T18:56:47.239Z,24.60
2022-09-06T19:04:56.175Z,24.60
2022-09-06T19:13:01.686Z,24.50
2022-09-06T19:21:11.303Z,24.50
2022-09-06T19:29:18.754Z,24.10
2022-09-06T19:37:26.915Z,24.10
2022-09-06T19:45:32.511Z,24.10
2022-09-06T19:53:42.090Z,24.10
2022-09-06T20:01:49.679Z,24.00
2022-09-06T20:09:57.827Z,23.60
2022-09-06T20:18:03.282Z,23.50
2022-09-06T20:26:13.608Z,23.30
2022-09-06T20:34:21.475Z,23.40
2022-09-06T20:42:29.563Z,23.10
2022-09-06T20:50:35.002Z,22.60
2022-09-06T20:58:43.755Z,22.70
2022-09-06T21:06:51.104Z,22.70
2022-09-06T21:14:59.170Z,22.60
2022-09-06T21:23:04.660Z,22.40
2022-09-06T21:31:14.961Z,22.40
2022-09-06T21:39:20.524Z,22.50
2022-09-06T21:47:28.616Z,22.00
2022-09-06T21:55:35.620Z,22.20
2022-09-06T22:03:43.801Z,21.80
2022-09-06T22:11:49.323Z,22.10
2022-09-06T22:19:57.345Z,22.00
2022-09-06T22:28:03.483Z,22.00
2022-09-06T22:36:11.952Z,22.00
2022-09-06T22:44:18.696Z,22.10
2022-09-06T22:52:26.828Z,22.20
2022-09-06T23:00:32.301Z,21.90
2022-09-06T23:08:41.994Z,21.60
2022-09-06T23:16:47.459Z,21.40
2022-09-06T23:24:55.823Z,21.50
2022-09-06T23:33:01.683Z,21.60
2022-09-06T23:41:10.623Z,21.30
2022-09-06T23:49:16.144Z,21.20
2022-09-06T23:57:24.183Z,21.00
